Carnival Victory — 3FFL8 — position and weather

sailwx.info

Track history (hours):
 
Tides and Currents Weather Stations Pressure Air Temp Water Temp Dewpoint Dewpoint Depression Visibility Wind Speed Wind Dir Waves Ship Positions

Carnival Victory

Operator: Carnival Cruise Lines

Last reported at 2016-Dec-08 03:00 UTC. Time now 2016-Dec-08 06:01 UTC.
Position N 25°30' W 076°06'.

Type: Ship. MMSI: 355263000.

Wind from 140 at 21 knots

Barometer 1021.4 mb
Air temperature 25.0 ° C
Visibility: greater than 10.8 NM
Dewpoint 22.2 ° C
Water temperature 27.0 ° C

Date/timePositionNaut miles runAvg speedWind from/ knotsBaromVisibWave heightAir tempDewpointWater temp
2016-Dec-08 03:00N 25°30' W 076°06'61 5.1 140 / 211021.410.8 25.022.227.0
2016-Dec-07 15:00N 24°30' W 075°54'30 4.4 280 / 81018.710.8 26.023.228.0
2016-Dec-07 08:00N 25°00' W 075°48'37 7.4 340 / 221015.710.8 26.024.628.0
2016-Dec-07 03:00N 25°30' W 076°12'97 8.1 310 / 231017.2 25.022.227.0
2016-Dec-06 15:00N 26°00' W 077°54'71 7.3 290 / 441017.010.8 25.022.228.0
2016-Dec-06 05:17N 26°16' W 079°11'1114.7
2016-Dec-06 04:33N 26°11' W 079°21'1514.9
2016-Dec-06 03:33N 26°03' W 079°35'1120.1
2016-Dec-06 03:00N 25°54' W 079°42'614.4 240 / 471014.410.8 24.021.127.0
2016-Dec-06 02:34N 25°55' W 079°49'1515.1
2016-Dec-06 01:33N 25°47' W 080°03'6 5.9
2016-Dec-06 00:30N 25°47' W 080°10'0 0.0
2016-Dec-05 23:33N 25°47' W 080°10'0 0.0
2016-Dec-05 22:33N 25°47' W 080°10'0 0.0
2016-Dec-05 21:33N 25°47' W 080°10'0 0.0
2016-Dec-05 20:33N 25°47' W 080°10'0 0.0
2016-Dec-05 19:33N 25°47' W 080°10'0 0.0
2016-Dec-05 18:33N 25°47' W 080°10'0 0.0
2016-Dec-05 17:33N 25°47' W 080°10'0 0.0
2016-Dec-05 16:33N 25°47' W 080°10'0 0.0
2016-Dec-05 15:33N 25°47' W 080°10'0 0.0
2016-Dec-05 14:33N 25°47' W 080°10'0 0.0
2016-Dec-05 13:30N 25°47' W 080°10'0 0.0
2016-Dec-05 12:33N 25°47' W 080°10'0 0.0
2016-Dec-05 11:33N 25°47' W 080°10'0 0.3
2016-Dec-05 10:33N 25°47' W 080°10'6 6.0
2016-Dec-05 09:33N 25°46' W 080°04'8 8.3
2016-Dec-05 08:33N 25°51' W 079°56'8 7.9
2016-Dec-05 07:33N 25°55' W 079°48'8 8.4
2016-Dec-05 06:33N 25°59' W 079°40'8 8.1
2016-Dec-05 05:33N 26°04' W 079°33'8 8.3
2016-Dec-05 04:33N 26°08' W 079°25'9 8.7
2016-Dec-05 03:33N 26°13' W 079°17'1 2.2
2016-Dec-05 03:00N 26°12' W 079°18'7110.2 010 / 251018.310.8 25.020.727.0
2016-Dec-04 20:00N 26°00' W 078°00'5210.4 360 / 111017.410.8 29.023.527.0
2016-Dec-04 15:00N 25°24' W 077°18'24 2.0 120 / 231019.110.8 25.022.227.0
2016-Dec-04 03:00N 25°00' W 077°18'36 2.4 150 / 161018.710.8 24.019.627.0
2016-Dec-03 12:00N 25°36' W 077°24'10613.8 190 / 131018.110.8 25.022.227.0
2016-Dec-03 04:18N 26°16' W 079°13'1013.2
2016-Dec-03 03:33N 26°10' W 079°23'1221.7
2016-Dec-03 03:00N 26°00' W 079°30'512.3 100 / 101018.810.8 25.020.727.0
2016-Dec-03 02:34N 26°02' W 079°35'1413.8
2016-Dec-03 01:34N 25°55' W 079°48'1414.0
2016-Dec-03 00:33N 25°47' W 080°02'8 8.1
2016-Dec-02 23:33N 25°47' W 080°11'0 0.4
2016-Dec-02 22:33N 25°47' W 080°10'0 0.0
2016-Dec-02 21:33N 25°47' W 080°10'0 0.0
2016-Dec-02 20:33N 25°47' W 080°10'0 0.0
2016-Dec-02 19:33N 25°47' W 080°10'0 0.0
2016-Dec-02 18:33N 25°47' W 080°10'0 0.0
2016-Dec-02 17:33N 25°47' W 080°10'0 0.0
2016-Dec-02 16:33N 25°47' W 080°10'0 0.0
2016-Dec-02 15:33N 25°47' W 080°10'0 0.0
2016-Dec-02 14:33N 25°47' W 080°10'0 0.0
2016-Dec-02 13:33N 25°47' W 080°10'0 0.0
2016-Dec-02 12:33N 25°47' W 080°10'0 0.0
2016-Dec-02 11:33N 25°47' W 080°10'0 0.0
2016-Dec-02 10:33N 25°47' W 080°10'0 0.0
2016-Dec-02 09:33N 25°47' W 080°10'0 0.0
2016-Dec-02 08:33N 25°47' W 080°10'8 7.6
2016-Dec-02 07:33N 25°46' W 080°02'2121.4
2016-Dec-02 06:34N 25°25' W 079°57'14018.6
2016-Dec-01 23:00N 23°42' W 081°42'22917.6 240 / 41013.910.8 28.025.329.0
2016-Dec-01 10:00N 22°00' W 085°24'11219.8 200 / 291011.910.8 27.022.826.0
2016-Dec-01 04:20N 20°43' W 086°51'1418.2
2016-Dec-01 03:33N 20°31' W 086°60'2 2.4
2016-Dec-01 02:31N 20°29' W 086°59'0 0.0
2016-Dec-01 01:31N 20°29' W 086°59'0 0.0
2016-Dec-01 00:31N 20°29' W 086°59'0 0.0
2016-Nov-30 23:31N 20°29' W 086°59'0 0.0
2016-Nov-30 22:31N 20°29' W 086°59'0 0.0
2016-Nov-30 21:31N 20°29' W 086°59'0 0.0
2016-Nov-30 20:31N 20°29' W 086°59'0 0.0
2016-Nov-30 19:31N 20°29' W 086°59'0 0.0
2016-Nov-30 18:31N 20°29' W 086°59'0 0.0
2016-Nov-30 17:31N 20°29' W 086°59'0 0.0
2016-Nov-30 16:31N 20°29' W 086°59'7 7.1
2016-Nov-30 15:34N 20°35' W 086°58'9016.1
2016-Nov-30 10:00N 21°30' W 085°42'14320.4 360 / 461009.7 5.4 26.023.224.0
2016-Nov-30 03:00N 23°06' W 083°48'24510.2 020 / 421013.310.8 26.020.228.0
2016-Nov-29 03:00N 25°06' W 079°54'817.3 330 / 321015.4 24.018.028.0
2016-Nov-29 02:33N 25°13' W 079°57'1413.9
2016-Nov-29 01:33N 25°27' W 079°56'1413.7
2016-Nov-29 00:34N 25°40' W 079°58'1110.8
2016-Nov-28 23:34N 25°46' W 080°08'2 1.7
2016-Nov-28 22:22N 25°47' W 080°10'0 0.0
2016-Nov-28 21:28N 25°47' W 080°10'0 0.0
2016-Nov-28 20:28N 25°47' W 080°10'0 0.0
2016-Nov-28 19:28N 25°47' W 080°10'0 0.0
2016-Nov-28 18:28N 25°47' W 080°10'0 0.0
2016-Nov-28 17:28N 25°47' W 080°10'0 0.0
2016-Nov-28 16:28N 25°47' W 080°10'612.3
2016-Nov-28 16:00N 25°42' W 080°06'611.4 200 / 201016.910.8 24.018.028.0
2016-Nov-28 15:28N 25°47' W 080°10'0 0.0
2016-Nov-28 14:28N 25°47' W 080°10'0 0.0
2016-Nov-28 13:28N 25°47' W 080°10'0 0.0
2016-Nov-28 12:28N 25°47' W 080°10'0 0.0
2016-Nov-28 11:28N 25°47' W 080°10'0 0.0
2016-Nov-28 10:28N 25°47' W 080°10'0 0.0
2016-Nov-28 09:28N 25°47' W 080°10'1 0.9
2016-Nov-28 08:34N 25°47' W 080°11'2 1.9
2016-Nov-28 07:33N 25°46' W 080°09'2 1.7
2016-Nov-28 06:33N 25°46' W 080°07'9 9.5
2016-Nov-28 05:34N 25°49' W 079°58'9 8.8
2016-Nov-28 04:33N 25°54' W 079°50'9 9.1
2016-Nov-28 03:34N 25°59' W 079°41'5 8.2
2016-Nov-28 03:00N 26°00' W 079°36'   310 / 131017.210.8 23.018.528.0
Track history (hours):
 
Tides and Currents Weather Stations Pressure Air Temp Water Temp Dewpoint Dewpoint Depression Visibility Wind Speed Wind Dir Waves Ship Positions

Carnival Victory

Operator: Carnival Cruise Lines

Last reported at 2016-Dec-08 03:00 UTC. Time now 2016-Dec-08 06:01 UTC.
Position N 25°30' W 076°06'.

Type: Ship. MMSI: 355263000.

Wind from 140 at 21 knots

Barometer 1021.4 mb
Air temperature 25.0 ° C
Visibility: greater than 10.8 NM
Dewpoint 22.2 ° C
Water temperature 27.0 ° C

Date/timePositionNaut miles runAvg speedWind from/ knotsBaromVisibWave heightAir tempDewpointWater temp
2016-Dec-08 03:00N 25°30' W 076°06'61 5.1 140 / 211021.410.8 25.022.227.0
2016-Dec-07 15:00N 24°30' W 075°54'30 4.4 280 / 81018.710.8 26.023.228.0
2016-Dec-07 08:00N 25°00' W 075°48'37 7.4 340 / 221015.710.8 26.024.628.0
2016-Dec-07 03:00N 25°30' W 076°12'97 8.1 310 / 231017.2 25.022.227.0
2016-Dec-06 15:00N 26°00' W 077°54'71 7.3 290 / 441017.010.8 25.022.228.0
2016-Dec-06 05:17N 26°16' W 079°11'1114.7
2016-Dec-06 04:33N 26°11' W 079°21'1514.9
2016-Dec-06 03:33N 26°03' W 079°35'1120.1
2016-Dec-06 03:00N 25°54' W 079°42'614.4 240 / 471014.410.8 24.021.127.0
2016-Dec-06 02:34N 25°55' W 079°49'1515.1
2016-Dec-06 01:33N 25°47' W 080°03'6 5.9
2016-Dec-06 00:30N 25°47' W 080°10'0 0.0
2016-Dec-05 23:33N 25°47' W 080°10'0 0.0
2016-Dec-05 22:33N 25°47' W 080°10'0 0.0
2016-Dec-05 21:33N 25°47' W 080°10'0 0.0
2016-Dec-05 20:33N 25°47' W 080°10'0 0.0
2016-Dec-05 19:33N 25°47' W 080°10'0 0.0
2016-Dec-05 18:33N 25°47' W 080°10'0 0.0
2016-Dec-05 17:33N 25°47' W 080°10'0 0.0
2016-Dec-05 16:33N 25°47' W 080°10'0 0.0
2016-Dec-05 15:33N 25°47' W 080°10'0 0.0
2016-Dec-05 14:33N 25°47' W 080°10'0 0.0
2016-Dec-05 13:30N 25°47' W 080°10'0 0.0
2016-Dec-05 12:33N 25°47' W 080°10'0 0.0
2016-Dec-05 11:33N 25°47' W 080°10'0 0.3
2016-Dec-05 10:33N 25°47' W 080°10'6 6.0
2016-Dec-05 09:33N 25°46' W 080°04'8 8.3
2016-Dec-05 08:33N 25°51' W 079°56'8 7.9
2016-Dec-05 07:33N 25°55' W 079°48'8 8.4
2016-Dec-05 06:33N 25°59' W 079°40'8 8.1
2016-Dec-05 05:33N 26°04' W 079°33'8 8.3
2016-Dec-05 04:33N 26°08' W 079°25'9 8.7
2016-Dec-05 03:33N 26°13' W 079°17'1 2.2
2016-Dec-05 03:00N 26°12' W 079°18'7110.2 010 / 251018.310.8 25.020.727.0
2016-Dec-04 20:00N 26°00' W 078°00'5210.4 360 / 111017.410.8 29.023.527.0
2016-Dec-04 15:00N 25°24' W 077°18'24 2.0 120 / 231019.110.8 25.022.227.0
2016-Dec-04 03:00N 25°00' W 077°18'36 2.4 150 / 161018.710.8 24.019.627.0
2016-Dec-03 12:00N 25°36' W 077°24'10613.8 190 / 131018.110.8 25.022.227.0
2016-Dec-03 04:18N 26°16' W 079°13'1013.2
2016-Dec-03 03:33N 26°10' W 079°23'1221.7
2016-Dec-03 03:00N 26°00' W 079°30'512.3 100 / 101018.810.8 25.020.727.0
2016-Dec-03 02:34N 26°02' W 079°35'1413.8
2016-Dec-03 01:34N 25°55' W 079°48'1414.0
2016-Dec-03 00:33N 25°47' W 080°02'8 8.1
2016-Dec-02 23:33N 25°47' W 080°11'0 0.4
2016-Dec-02 22:33N 25°47' W 080°10'0 0.0
2016-Dec-02 21:33N 25°47' W 080°10'0 0.0
2016-Dec-02 20:33N 25°47' W 080°10'0 0.0
2016-Dec-02 19:33N 25°47' W 080°10'0 0.0
2016-Dec-02 18:33N 25°47' W 080°10'0 0.0
2016-Dec-02 17:33N 25°47' W 080°10'0 0.0
2016-Dec-02 16:33N 25°47' W 080°10'0 0.0
2016-Dec-02 15:33N 25°47' W 080°10'0 0.0
2016-Dec-02 14:33N 25°47' W 080°10'0 0.0
2016-Dec-02 13:33N 25°47' W 080°10'0 0.0
2016-Dec-02 12:33N 25°47' W 080°10'0 0.0
2016-Dec-02 11:33N 25°47' W 080°10'0 0.0
2016-Dec-02 10:33N 25°47' W 080°10'0 0.0
2016-Dec-02 09:33N 25°47' W 080°10'0 0.0
2016-Dec-02 08:33N 25°47' W 080°10'8 7.6
2016-Dec-02 07:33N 25°46' W 080°02'2121.4
2016-Dec-02 06:34N 25°25' W 079°57'14018.6
2016-Dec-01 23:00N 23°42' W 081°42'22917.6 240 / 41013.910.8 28.025.329.0
2016-Dec-01 10:00N 22°00' W 085°24'11219.8 200 / 291011.910.8 27.022.826.0
2016-Dec-01 04:20N 20°43' W 086°51'1418.2
2016-Dec-01 03:33N 20°31' W 086°60'2 2.4
2016-Dec-01 02:31N 20°29' W 086°59'0 0.0
2016-Dec-01 01:31N 20°29' W 086°59'0 0.0
2016-Dec-01 00:31N 20°29' W 086°59'0 0.0
2016-Nov-30 23:31N 20°29' W 086°59'0 0.0
2016-Nov-30 22:31N 20°29' W 086°59'0 0.0
2016-Nov-30 21:31N 20°29' W 086°59'0 0.0
2016-Nov-30 20:31N 20°29' W 086°59'0 0.0
2016-Nov-30 19:31N 20°29' W 086°59'0 0.0
2016-Nov-30 18:31N 20°29' W 086°59'0 0.0
2016-Nov-30 17:31N 20°29' W 086°59'0 0.0
2016-Nov-30 16:31N 20°29' W 086°59'7 7.1
2016-Nov-30 15:34N 20°35' W 086°58'9016.1
2016-Nov-30 10:00N 21°30' W 085°42'14320.4 360 / 461009.7 5.4 26.023.224.0
2016-Nov-30 03:00N 23°06' W 083°48'24510.2 020 / 421013.310.8 26.020.228.0
2016-Nov-29 03:00N 25°06' W 079°54'817.3 330 / 321015.4 24.018.028.0
2016-Nov-29 02:33N 25°13' W 079°57'1413.9
2016-Nov-29 01:33N 25°27' W 079°56'1413.7
2016-Nov-29 00:34N 25°40' W 079°58'1110.8
2016-Nov-28 23:34N 25°46' W 080°08'2 1.7
2016-Nov-28 22:22N 25°47' W 080°10'0 0.0
2016-Nov-28 21:28N 25°47' W 080°10'0 0.0
2016-Nov-28 20:28N 25°47' W 080°10'0 0.0
2016-Nov-28 19:28N 25°47' W 080°10'0 0.0
2016-Nov-28 18:28N 25°47' W 080°10'0 0.0
2016-Nov-28 17:28N 25°47' W 080°10'0 0.0
2016-Nov-28 16:28N 25°47' W 080°10'612.3
2016-Nov-28 16:00N 25°42' W 080°06'611.4 200 / 201016.910.8 24.018.028.0
2016-Nov-28 15:28N 25°47' W 080°10'0 0.0
2016-Nov-28 14:28N 25°47' W 080°10'0 0.0
2016-Nov-28 13:28N 25°47' W 080°10'0 0.0
2016-Nov-28 12:28N 25°47' W 080°10'0 0.0
2016-Nov-28 11:28N 25°47' W 080°10'0 0.0
2016-Nov-28 10:28N 25°47' W 080°10'0 0.0
2016-Nov-28 09:28N 25°47' W 080°10'1 0.9
2016-Nov-28 08:34N 25°47' W 080°11'2 1.9
2016-Nov-28 07:33N 25°46' W 080°09'2 1.7
2016-Nov-28 06:33N 25°46' W 080°07'9 9.5
2016-Nov-28 05:34N 25°49' W 079°58'9 8.8
2016-Nov-28 04:33N 25°54' W 079°50'9 9.1
2016-Nov-28 03:34N 25°59' W 079°41'5 8.2
2016-Nov-28 03:00N 26°00' W 079°36'   310 / 131017.210.8 23.018.528.0

Dump ship's entire track history